^^
Saratoga-Weather Station Historical Data
Daily Summary for July 2, 2020 Units:  Metric    English   Both
Daily Weekly Monthly Yearly Custom
  High: Low: Average:
Temperature: 19.8 °C 17.2 °C 18 °C
Dew Point: 17 °C 15.4 °C 16.4 °C
Humidity: 92% 83% 90%
Wind Speed: 11.1km/h 0km/h 2.3km/h
Wind Gust: 12.9km/h - -
Wind- - WNW
Pressure: 1010.5 hPa 1009.8 hPa -
Precipitation: 0.0 mm    
Historical Graphs
 
 
Tabular Data for July 2, 2020
Time Temperature Dew Point Pressure Wind Wind Speed Wind Gust Humidity Rainfall Rate (Hourly) solar
00:02 19.8 °C 16.8 °C 1009.8 hPa WNW 4.7 km/h 9.7 km/h 83% 0.0 mm 0 W/m2
00:07 19.7 °C 16.9 °C 1010.2 hPa West 1.4 km/h 3.2 km/h 84% 0.0 mm 0 W/m2
00:12 19.6 °C 16.8 °C 1010.2 hPa West 6.4 km/h 11.3 km/h 84% 0.0 mm 0 W/m2
00:17 19.4 °C 16.8 °C 1010.2 hPa WNW 6.4 km/h 12.9 km/h 85% 0.0 mm 0 W/m2
00:22 19.3 °C 16.9 °C 1010.2 hPa West 6.4 km/h 6.4 km/h 86% 0.0 mm 0 W/m2
00:27 19.2 °C 17 °C 1010.2 hPa West 6.4 km/h 12.9 km/h 87% 0.0 mm 0 W/m2
00:32 19.1 °C 16.9 °C 1010.2 hPa NW 1.4 km/h 3.2 km/h 87% 0.0 mm 0 W/m2
00:37 18.9 °C 17 °C 1010.2 hPa West 3.2 km/h 8 km/h 89% 0.0 mm 0 W/m2
00:42 18.8 °C 16.9 °C 1010.2 hPa WSW 1.4 km/h 3.2 km/h 89% 0.0 mm 0 W/m2
00:47 18.7 °C 17 °C 1010.2 hPa WSW 1.4 km/h 1.6 km/h 90% 0.0 mm 0 W/m2
00:52 18.6 °C 16.9 °C 1010.2 hPa Calm     90% 0.0 mm 0 W/m2
00:57 18.5 °C 16.8 °C 1010.2 hPa Calm     90% 0.0 mm 0 W/m2
01:02 18.4 °C 16.7 °C 1010.2 hPa Calm   1.6 km/h 90% 0.0 mm 0 W/m2
01:07 18.3 °C 16.8 °C 1010.2 hPa Calm   1.6 km/h 91% 0.0 mm 0 W/m2
01:12 18.3 °C 16.8 °C 1010.2 hPa Calm     91% 0.0 mm 0 W/m2
01:18 18.3 °C 16.8 °C 1009.8 hPa Calm     91% 0.0 mm 0 W/m2
01:23 18.2 °C 16.7 °C 1010.2 hPa Calm   3.2 km/h 91% 0.0 mm 0 W/m2
01:28 18.2 °C 16.7 °C 1009.8 hPa West 3.2 km/h 9.7 km/h 91% 0.0 mm 0 W/m2
01:33 18.2 °C 16.7 °C 1010.2 hPa West 1.4 km/h 1.6 km/h 91% 0.0 mm 0 W/m2
01:38 18.1 °C 16.8 °C 1010.2 hPa Calm   4.8 km/h 92% 0.0 mm 0 W/m2
01:43 18.1 °C 16.8 °C 1009.8 hPa Calm   1.6 km/h 92% 0.0 mm 0 W/m2
01:48 18 °C 16.7 °C 1009.8 hPa Calm   1.6 km/h 92% 0.0 mm 0 W/m2
01:53 18 °C 16.7 °C 1009.8 hPa Calm     92% 0.0 mm 0 W/m2
01:58 18 °C 16.7 °C 1009.8 hPa Calm   1.6 km/h 92% 0.0 mm 0 W/m2
02:03 18 °C 16.7 °C 1010.2 hPa NW 1.4 km/h 3.2 km/h 92% 0.0 mm 0 W/m2
02:08 18 °C 16.7 °C 1009.8 hPa NW 1.4 km/h 1.6 km/h 92% 0.0 mm 0 W/m2
02:13 18.1 °C 16.8 °C 1010.2 hPa North 3.2 km/h 3.2 km/h 92% 0.0 mm 0 W/m2
02:23 18.2 °C 16.9 °C 1010.2 hPa Calm   1.6 km/h 92% 0.0 mm 0 W/m2
02:28 18.1 °C 16.8 °C 1010.2 hPa North 1.4 km/h 1.6 km/h 92% 0.0 mm 0 W/m2
02:34 18.1 °C 16.8 °C 1010.2 hPa Calm     92% 0.0 mm 0 W/m2
02:39 18.1 °C 16.8 °C 1010.2 hPa Calm   1.6 km/h 92% 0.0 mm 0 W/m2
02:44 18.1 °C 16.8 °C 1010.2 hPa North 1.4 km/h 1.6 km/h 92% 0.0 mm 0 W/m2
02:49 18.1 °C 16.8 °C 1010.2 hPa Calm   4.8 km/h 92% 0.0 mm 0 W/m2
02:54 18.1 °C 16.8 °C 1009.8 hPa NW 1.4 km/h 3.2 km/h 92% 0.0 mm 0 W/m2
02:59 18.1 °C 16.8 °C 1009.8 hPa NW 1.4 km/h 3.2 km/h 92% 0.0 mm 0 W/m2
03:04 18.1 °C 16.6 °C 1009.8 hPa Calm   3.2 km/h 91% 0.0 mm 0 W/m2
03:09 18.1 °C 16.6 °C 1010.2 hPa NNW 1.4 km/h 1.6 km/h 91% 0.0 mm 0 W/m2
03:14 18.1 °C 16.6 °C 1010.2 hPa NNW 1.4 km/h 1.6 km/h 91% 0.0 mm 0 W/m2
03:19 18.1 °C 16.6 °C 1009.8 hPa Calm   1.6 km/h 91% 0.0 mm 0 W/m2
03:24 18.1 °C 16.6 °C 1009.8 hPa Calm   3.2 km/h 91% 0.0 mm 0 W/m2
03:29 18.1 °C 16.6 °C 1009.8 hPa NNW 4.7 km/h 6.4 km/h 91% 0.0 mm 0 W/m2
03:34 18 °C 16.5 °C 1009.8 hPa Calm     91% 0.0 mm 0 W/m2
03:39 18 °C 16.5 °C 1009.8 hPa WNW 6.4 km/h 6.4 km/h 91% 0.0 mm 0 W/m2
03:44 17.9 °C 16.4 °C 1009.8 hPa West 3.2 km/h 6.4 km/h 91% 0.0 mm 0 W/m2
03:49 17.9 °C 16.4 °C 1009.8 hPa NW 4.7 km/h 4.8 km/h 91% 0.0 mm 0 W/m2
03:54 18 °C 16.5 °C 1009.8 hPa NW 1.4 km/h 3.2 km/h 91% 0.0 mm 0 W/m2
03:59 18.1 °C 16.6 °C 1009.8 hPa NW 3.2 km/h 6.4 km/h 91% 0.0 mm 0 W/m2
04:04 18.1 °C 16.4 °C 1009.8 hPa East 1.4 km/h 3.2 km/h 90% 0.0 mm 0 W/m2
04:09 18 °C 16.3 °C 1009.8 hPa ENE 1.4 km/h 3.2 km/h 90% 0.0 mm 0 W/m2
04:14 17.9 °C 16.2 °C 1009.8 hPa Calm   1.6 km/h 90% 0.0 mm 0 W/m2
04:25 17.8 °C 16.1 °C 1009.8 hPa NNW 4.7 km/h 11.3 km/h 90% 0.0 mm 0 W/m2
04:30 17.8 °C 16.1 °C 1009.8 hPa Calm   3.2 km/h 90% 0.0 mm 0 W/m2
04:35 17.7 °C 16.2 °C 1009.8 hPa NNW 1.4 km/h 9.7 km/h 91% 0.0 mm 0 W/m2
04:40 17.7 °C 16.2 °C 1009.8 hPa Calm   3.2 km/h 91% 0.0 mm 0 W/m2
04:45 17.7 °C 16.2 °C 1010.2 hPa WSW 1.4 km/h 8 km/h 91% 0.0 mm 0 W/m2
04:50 17.7 °C 16 °C 1010.2 hPa Calm   4.8 km/h 90% 0.0 mm 0 W/m2
05:00 17.7 °C 16 °C 1010.2 hPa Calm   3.2 km/h 90% 0.0 mm 0 W/m2
05:05 17.7 °C 16 °C 1010.2 hPa Calm   3.2 km/h 90% 0.0 mm 0 W/m2
05:10 17.7 °C 16 °C 1010.2 hPa Calm   3.2 km/h 90% 0.0 mm 0 W/m2
05:15 17.6 °C 15.9 °C 1010.2 hPa NW 3.2 km/h 6.4 km/h 90% 0.0 mm 0 W/m2
05:20 17.6 °C 16.1 °C 1010.2 hPa North 1.4 km/h 1.6 km/h 91% 0.0 mm 0 W/m2
05:25 17.5 °C 16 °C 1010.2 hPa WSW 4.7 km/h 4.8 km/h 91% 0.0 mm 0 W/m2
05:30 17.4 °C 15.9 °C 1010.2 hPa WNW 3.2 km/h 3.2 km/h 91% 0.0 mm 0 W/m2
05:35 17.4 °C 15.7 °C 1010.2 hPa WNW 11.1 km/h 12.9 km/h 90% 0.0 mm 0 W/m2
05:40 17.4 °C 15.7 °C 1010.2 hPa WNW 6.4 km/h 8 km/h 90% 0.0 mm 5 W/m2
05:45 17.3 °C 15.6 °C 1010.2 hPa SW 3.2 km/h 12.9 km/h 90% 0.0 mm 5 W/m2
05:50 17.3 °C 15.6 °C 1010.2 hPa NW 1.4 km/h 3.2 km/h 90% 0.0 mm 7 W/m2
05:55 17.2 °C 15.5 °C 1010.2 hPa WNW 4.7 km/h 4.8 km/h 90% 0.0 mm 12 W/m2
06:00 17.2 °C 15.7 °C 1010.2 hPa West 4.7 km/h 11.3 km/h 91% 0.0 mm 14 W/m2
06:10 17.2 °C 15.7 °C 1010.2 hPa NW 4.7 km/h 11.3 km/h 91% 0.0 mm 30 W/m2
06:15 17.2 °C 15.7 °C 1010.2 hPa WNW 1.4 km/h 8 km/h 91% 0.0 mm 30 W/m2
06:20 17.2 °C 15.5 °C 1010.2 hPa West 6.4 km/h 6.4 km/h 90% 0.0 mm 30 W/m2
06:25 17.2 °C 15.5 °C 1010.2 hPa WNW 3.2 km/h 6.4 km/h 90% 0.0 mm 42 W/m2
06:30 17.2 °C 15.5 °C 1010.2 hPa West 3.2 km/h 6.4 km/h 90% 0.0 mm 49 W/m2
06:35 17.2 °C 15.4 °C 1010.2 hPa West 3.2 km/h 11.3 km/h 89% 0.0 mm 62 W/m2
06:40 17.2 °C 15.4 °C 1010.2 hPa NW 3.2 km/h 3.2 km/h 89% 0.0 mm 70 W/m2
06:45 17.3 °C 15.5 °C 1010.2 hPa West 4.7 km/h 6.4 km/h 89% 0.0 mm 77 W/m2
06:50 17.4 °C 15.4 °C 1010.2 hPa NW 6.4 km/h 8 km/h 88% 0.0 mm 58 W/m2
06:55 17.4 °C 15.4 °C 1010.5 hPa SSE 9.7 km/h 11.3 km/h 88% 0.0 mm 49 W/m2
07:00 17.4 °C 15.4 °C 1010.5 hPa WSW 1.4 km/h 4.8 km/h 88% 0.0 mm 51 W/m2
Juneau County Weather
Compliments of Weather Underground - 2 mb